This is the latest recevied weather packets stored in our database for station/object N4DWK. If no packets are shown the sender has not sent any weather packets the latest 10 day(s).
| Time | Temp. | Humidity | Pressure | Rain* | Wind** | Luminosity | Snow |
|---|---|---|---|---|---|---|---|
| 1777603805 | 13.89° C | 57% | 1013.9 hPa | 0 mm | - | 0 W/m² | - |
| 1777603503 | 13.89° C | 57% | 1013.9 hPa | 0 mm | - | 0 W/m² | - |
| 1777603205 | 14.44° C | 57% | 1013.8 hPa | 0 mm | - | 0 W/m² | - |
| 1777602904 | 14.44° C | 57% | 1013.8 hPa | 0 mm | - | 0 W/m² | - |
| 1777602604 | 14.44° C | 56% | 1013.7 hPa | 0 mm | - | 0 W/m² | - |
| 1777602304 | 14.44° C | 56% | 1013.6 hPa | 0 mm | - | 0 W/m² | - |
| 1777602005 | 14.44° C | 55% | 1013.6 hPa | 0 mm | - | 0 W/m² | - |
| 1777601405 | 15° C | 54% | 1013.5 hPa | 0 mm | - | 0 W/m² | - |
| 1777601104 | 15° C | 54% | 1013.4 hPa | 0 mm | - | 0 W/m² | - |
| 1777587305 | 23.33° C | 39% | 1008.5 hPa | 0 mm | - | 37 W/m² | - |
| 1777587005 | 23.33° C | 41% | 1008.5 hPa | 0 mm | - | 218 W/m² | - |
| 1777585806 | 23.33° C | 42% | 1008.3 hPa | 0 mm | - | 290 W/m² | - |
| 1777585505 | 23.33° C | 42% | 1008.4 hPa | 0 mm | - | 290 W/m² | - |
| 1777584905 | 23.33° C | 43% | 1008.4 hPa | 0 mm | - | 330 W/m² | - |
| 1777583105 | 23.89° C | 41% | 1008.3 hPa | 0 mm | - | 380 W/m² | - |
| 1777581005 | 24.44° C | 41% | 1008.1 hPa | 0 mm | - | 480 W/m² | - |
| 1777580105 | 23.89° C | 45% | 1008 hPa | 0 mm | - | 490 W/m² | - |
| 1777577705 | 23.33° C | 49% | 1008.1 hPa | 0 mm | - | 573 W/m² | - |
| 1777577405 | 23.33° C | 49% | 1008.2 hPa | 0 mm | - | 564 W/m² | - |
| 1777577105 | 23.33° C | 50% | 1008.3 hPa | 0 mm | - | 578 W/m² | - |
| 1777576505 | 23.33° C | 51% | 1008.3 hPa | 0 mm | - | 603 W/m² | - |
| 1777572905 | 22.22° C | 53% | 1008.4 hPa | 0 mm | - | 659 W/m² | - |
| 1777570505 | 21.67° C | 56% | 1008.9 hPa | 0 mm | - | 114 W/m² | - |
| 1777570205 | 21.67° C | 54% | 1008.9 hPa | 0 mm | - | 229 W/m² | - |
| 1777569905 | 22.22° C | 54% | 1008.8 hPa | 0 mm | - | 726 W/m² | - |
* Rain latest hour (hover to see other rain measurements)
** Current wind speed in m/s (hover to see current wind gust speed)